Terminal Aerodrome Forecast
Issued by NWS Atlanta, GA

Home | Current Version | Previous Version | Text Only | Print | Product List | Glossary On
Versions: 1 2 3 4 5 6 7 8 9 10 11 12 13 14 15 16 17 18 19 20 21 22 23 24 25 26 27 28 29 30 31 32 33
000
FTUS42 KFFC 241826 AAA
TAFCSG
TAF AMD
KCSG 241826Z 2418/2518 23013G22KT P6SM VCSH SCT045 BKN100
      TEMPO 2421/2501 VRB20G30KT 4SM TSRA BKN025CB
     FM250200 26006KT P6SM FEW050 BKN200
     FM251400 30008KT P6SM SCT250
     FM251700 31011KT P6SM SCT040=

USA.gov is the U.S. government's official web portal to all federal, state and local government web resources and services.